Trapani — LM4563 — position and weather

sailwx.info

Track history (hours):
 
Tides and Currents Weather Stations Pressure Air Temp Water Temp Dewpoint Dewpoint Depression Visibility Wind Speed Wind Dir Waves Ship Positions

Trapani

Last reported at 2017-Nov-16 09:54 UTC. Time now 2017-Nov-18 04:46 UTC.
Position N 69°07' E 017°38'.

Length 10 m.

Type: Fishing. MMSI: 257176540.

Date/timePositionNaut miles runAvg speedWind from/ knotsBaromVisibWave heightAir tempDewpointWater temp
2017-Nov-16 09:54N 69°07' E 017°38'2 3.5
2017-Nov-16 09:26N 69°06' E 017°34'1 2.7
2017-Nov-16 09:00N 69°06' E 017°31'0 0.8
2017-Nov-16 08:30N 69°05' E 017°30'0 0.1
2017-Nov-16 08:00N 69°05' E 017°30'3 5.4
2017-Nov-16 07:30N 69°07' E 017°35'2 3.0
2017-Nov-16 06:59N 69°09' E 017°37'0 0.4
2017-Nov-16 06:30N 69°09' E 017°38'0 0.3
2017-Nov-16 05:59N 69°09' E 017°37'0 0.9
2017-Nov-16 05:29N 69°08' E 017°37'3 6.0
2017-Nov-16 05:00N 69°05' E 017°36'0 0.5
2017-Nov-16 04:30N 69°05' E 017°37'0 0.0
2017-Nov-16 04:00N 69°05' E 017°37'0 0.0
2017-Nov-16 03:30N 69°05' E 017°37'0 0.0
2017-Nov-16 03:00N 69°05' E 017°37'0 0.0
2017-Nov-16 02:30N 69°05' E 017°37'0 0.0
2017-Nov-16 02:00N 69°05' E 017°37'0 0.0
2017-Nov-16 01:30N 69°05' E 017°37'0 0.0
2017-Nov-16 01:00N 69°05' E 017°37'0 0.0
2017-Nov-16 00:30N 69°05' E 017°37'0 0.0
2017-Nov-16 00:00N 69°05' E 017°37'0 0.0
2017-Nov-15 23:30N 69°05' E 017°37'0 0.0
2017-Nov-15 23:00N 69°05' E 017°37'0 0.0
2017-Nov-15 22:30N 69°05' E 017°37'0 0.0
2017-Nov-15 22:00N 69°05' E 017°37'0 0.0
2017-Nov-15 21:30N 69°05' E 017°37'0 0.0
2017-Nov-15 21:00N 69°05' E 017°37'0 0.0
2017-Nov-15 20:30N 69°05' E 017°37'0 0.0
2017-Nov-15 20:00N 69°05' E 017°37'0 0.0
2017-Nov-15 19:30N 69°05' E 017°37'0 0.0
2017-Nov-15 19:00N 69°05' E 017°37'0 0.0
2017-Nov-15 18:30N 69°05' E 017°37'0 0.0
2017-Nov-15 18:00N 69°05' E 017°37'0 0.0
2017-Nov-15 17:30N 69°05' E 017°37'0 0.0
2017-Nov-15 17:00N 69°05' E 017°37'0 0.0
2017-Nov-15 16:30N 69°05' E 017°37'0 0.0
2017-Nov-15 16:00N 69°05' E 017°37'0 0.0
2017-Nov-15 15:30N 69°05' E 017°37'0 0.0
2017-Nov-15 15:00N 69°05' E 017°37'0 0.6
2017-Nov-15 14:29N 69°05' E 017°36'1 2.1
2017-Nov-15 13:58N 69°06' E 017°37'1 1.5
2017-Nov-15 13:30N 69°07' E 017°39'0 0.7
2017-Nov-15 12:58N 69°07' E 017°38'0 0.3
2017-Nov-15 12:28N 69°07' E 017°39'2 4.1
2017-Nov-15 12:00N 69°06' E 017°34'0 0.2
2017-Nov-15 11:30N 69°06' E 017°34'2 3.2
2017-Nov-15 11:00N 69°05' E 017°30'0 0.1
2017-Nov-15 10:23N 69°05' E 017°30'0 0.1
2017-Nov-15 10:00N 69°05' E 017°30'3 5.1
2017-Nov-15 09:30N 69°07' E 017°35'2 3.4
2017-Nov-15 09:00N 69°09' E 017°37'1 2.2
2017-Nov-15 08:30N 69°09' E 017°34'0 0.4
2017-Nov-15 08:00N 69°09' E 017°34'1 2.2
2017-Nov-15 07:29N 69°09' E 017°38'0 0.1
2017-Nov-15 06:59N 69°09' E 017°37'2 4.2
2017-Nov-15 06:30N 69°09' E 017°43'4 7.1
2017-Nov-15 05:59N 69°10' E 017°53'3 7.1
2017-Nov-15 05:30N 69°12' E 018°01'2 4.5
2017-Nov-15 04:59N 69°14' E 017°58'0 0.0
2017-Nov-15 04:29N 69°14' E 017°58'0 0.0
2017-Nov-15 03:59N 69°14' E 017°58'0 0.0
2017-Nov-15 03:29N 69°14' E 017°58'0 0.0
2017-Nov-15 02:59N 69°14' E 017°58'0 0.0
2017-Nov-15 02:29N 69°14' E 017°58'0 0.0
2017-Nov-15 01:59N 69°14' E 017°58'0 0.0
2017-Nov-15 01:29N 69°14' E 017°58'0 0.0
2017-Nov-15 00:59N 69°14' E 017°58'0 0.0
2017-Nov-15 00:29N 69°14' E 017°58'0 0.0
2017-Nov-14 23:59N 69°14' E 017°58'0 0.0
2017-Nov-14 23:29N 69°14' E 017°58'0 0.0
2017-Nov-14 22:59N 69°14' E 017°58'0 0.0
2017-Nov-14 22:29N 69°14' E 017°58'0 0.0
2017-Nov-14 21:59N 69°14' E 017°58'0 0.0
2017-Nov-14 21:29N 69°14' E 017°58'0 0.0
2017-Nov-14 20:59N 69°14' E 017°58'3 5.9
2017-Nov-14 20:29N 69°17' E 017°58'3 6.4
2017-Nov-14 20:00N 69°20' E 018°01'3 6.3
2017-Nov-14 19:30N 69°22' E 018°05'3 6.8
2017-Nov-14 18:59N 69°26' E 018°06'3 6.9
2017-Nov-14 18:30N 69°29' E 018°04'3 6.5
2017-Nov-14 17:59N 69°32' E 017°58'2 3.2
2017-Nov-14 17:28N 69°31' E 017°54'0 0.1
2017-Nov-14 16:59N 69°31' E 017°54'0 0.0
2017-Nov-14 16:26N 69°31' E 017°54'0 0.0
2017-Nov-14 15:56N 69°31' E 017°54'0 0.0
2017-Nov-14 15:29N 69°31' E 017°54'0 0.0
2017-Nov-14 14:59N 69°31' E 017°54'0 0.0
2017-Nov-14 14:29N 69°31' E 017°54'0 0.0
2017-Nov-14 13:59N 69°31' E 017°54'0 0.2
2017-Nov-14 13:30N 69°31' E 017°54'0 0.0
2017-Nov-14 13:00N 69°31' E 017°54'0 0.0
2017-Nov-14 12:30N 69°31' E 017°54'0 0.0
2017-Nov-14 12:00N 69°31' E 017°54'0 0.0
2017-Nov-14 11:30N 69°31' E 017°54'0 0.0
2017-Nov-14 11:00N 69°31' E 017°54'0 0.2
2017-Nov-14 10:30N 69°31' E 017°54'3 5.1
2017-Nov-14 10:00N 69°31' E 018°02'3 6.9
2017-Nov-14 09:30N 69°28' E 018°05'4 7.2
2017-Nov-14 09:00N 69°24' E 018°05'4 7.2
2017-Nov-14 08:30N 69°20' E 018°04'3 7.0
2017-Nov-14 08:00N 69°18' E 017°58'4 7.3
2017-Nov-14 07:30N 69°14' E 017°58'2 3.2
2017-Nov-14 07:00N 69°12' E 018°00'3 6.0
2017-Nov-14 06:30N 69°10' E 017°55'3 7.0
2017-Nov-14 06:00N 69°09' E 017°46'4 6.9
2017-Nov-14 05:29N 69°09' E 017°36'1 1.8
2017-Nov-14 05:00N 69°08' E 017°35'3 5.7
2017-Nov-14 04:30N 69°05' E 017°36'0 0.3
2017-Nov-14 03:58N 69°05' E 017°37'0 0.0
2017-Nov-14 03:28N 69°05' E 017°37'0 0.0
2017-Nov-14 02:58N 69°05' E 017°37'0 0.0
2017-Nov-14 02:28N 69°05' E 017°37'0 0.0
2017-Nov-14 01:58N 69°05' E 017°37'0 0.0
2017-Nov-14 01:28N 69°05' E 017°37'0 0.0
2017-Nov-14 00:58N 69°05' E 017°37'0 0.0
2017-Nov-14 00:28N 69°05' E 017°37'0 0.0
2017-Nov-13 23:58N 69°05' E 017°37'0 0.0
2017-Nov-13 23:28N 69°05' E 017°37'0 0.0
2017-Nov-13 22:58N 69°05' E 017°37'0 0.0
2017-Nov-13 22:28N 69°05' E 017°37'0 0.0
2017-Nov-13 21:58N 69°05' E 017°37'0 0.0
2017-Nov-13 01:58N 69°05' E 017°37'0 0.0
2017-Nov-13 01:28N 69°05' E 017°37'0 0.0
2017-Nov-13 00:58N 69°05' E 017°37'0 0.0
2017-Nov-13 00:28N 69°05' E 017°37'0 0.0
2017-Nov-12 23:58N 69°05' E 017°37'0 0.0
2017-Nov-12 23:28N 69°05' E 017°37'0 0.0
2017-Nov-12 22:58N 69°05' E 017°37'0 0.0
2017-Nov-12 22:28N 69°05' E 017°37'0 0.0
2017-Nov-12 21:58N 69°05' E 017°37'0 0.0
2017-Nov-12 21:28N 69°05' E 017°37'0 0.0
2017-Nov-12 20:58N 69°05' E 017°37'0 0.0
2017-Nov-12 20:28N 69°05' E 017°37'0 0.0
2017-Nov-12 19:58N 69°05' E 017°37'0 0.0
2017-Nov-12 19:28N 69°05' E 017°37'0 0.0
2017-Nov-12 18:58N 69°05' E 017°37'0 0.0
2017-Nov-12 18:28N 69°05' E 017°37'0 0.0
2017-Nov-12 17:58N 69°05' E 017°37'0 0.0
2017-Nov-12 17:28N 69°05' E 017°37'0 0.0
2017-Nov-12 16:58N 69°05' E 017°37'0 0.0
2017-Nov-12 16:28N 69°05' E 017°37'0 0.0
2017-Nov-12 15:58N 69°05' E 017°37'0 0.0
2017-Nov-12 15:28N 69°05' E 017°37'0 1.0
2017-Nov-12 15:00N 69°06' E 017°36'1 1.8
2017-Nov-12 14:27N 69°07' E 017°38'0 0.7
2017-Nov-12 13:59N 69°07' E 017°39'2 3.2
2017-Nov-12 13:29N 69°06' E 017°35'0 0.2
2017-Nov-12 13:00N 69°06' E 017°35'1 2.5
2017-Nov-12 12:30N 69°06' E 017°31'1 1.2
2017-Nov-12 12:00N 69°05' E 017°30'0 0.1
2017-Nov-12 11:30N 69°05' E 017°30'1 2.3
2017-Nov-12 11:00N 69°05' E 017°27'1 0.9
2017-Nov-12 10:28N 69°05' E 017°25'2 3.3
2017-Nov-12 10:01N 69°06' E 017°29'3 5.4
2017-Nov-12 09:30N 69°08' E 017°34'1 1.5
2017-Nov-12 08:58N 69°08' E 017°36'0 0.2
2017-Nov-12 08:29N 69°09' E 017°36'0 1.0
2017-Nov-12 08:00N 69°09' E 017°37'0 0.1
2017-Nov-12 07:30N 69°09' E 017°37'2 3.5
2017-Nov-12 07:00N 69°07' E 017°36'2 3.0
2017-Nov-12 06:29N 69°05' E 017°37'0 0.0
2017-Nov-12 05:59N 69°05' E 017°37'0 0.0
2017-Nov-12 05:29N 69°05' E 017°37'0 0.0
2017-Nov-12 04:59N 69°05' E 017°37'0 0.0
2017-Nov-12 04:29N 69°05' E 017°37'0 0.0
2017-Nov-12 03:59N 69°05' E 017°37'0 0.0
2017-Nov-12 03:29N 69°05' E 017°37'0 0.0
2017-Nov-12 02:59N 69°05' E 017°37'0 0.0
2017-Nov-12 02:29N 69°05' E 017°37'0 0.0
2017-Nov-12 01:59N 69°05' E 017°37'0 0.0
2017-Nov-12 01:29N 69°05' E 017°37'0 0.0
2017-Nov-12 00:56N 69°05' E 017°37'0 0.0
2017-Nov-12 00:29N 69°05' E 017°37'0 0.0
2017-Nov-11 23:59N 69°05' E 017°37'0 0.0
2017-Nov-11 23:29N 69°05' E 017°37'0 0.0
2017-Nov-11 22:59N 69°05' E 017°37'0 0.0
2017-Nov-11 22:29N 69°05' E 017°37'0 0.0
2017-Nov-11 21:59N 69°05' E 017°37'0 0.0
2017-Nov-11 21:29N 69°05' E 017°37'0 0.0
2017-Nov-11 20:59N 69°05' E 017°37'0 0.0
2017-Nov-11 20:29N 69°05' E 017°37'0 0.0
2017-Nov-11 19:59N 69°05' E 017°37'0 0.0
2017-Nov-11 19:29N 69°05' E 017°37'2 3.3
2017-Nov-11 18:59N 69°07' E 017°39'3 7.2
2017-Nov-11 18:30N 69°09' E 017°47'4 7.5
2017-Nov-11 18:00N 69°10' E 017°57'3 5.3
2017-Nov-11 17:30N 69°13' E 017°59'3 6.8
2017-Nov-11 16:59N 69°16' E 017°58'3 6.4
2017-Nov-11 16:30N 69°19' E 018°01'3 6.8
2017-Nov-11 16:00N 69°22' E 018°06'3 6.9
2017-Nov-11 15:30N 69°26' E 018°06'3 6.7
2017-Nov-11 15:00N 69°29' E 018°05'3 6.4
2017-Nov-11 14:29N 69°31' E 017°59'2 3.5
2017-Nov-11 13:59N 69°31' E 017°54'0 0.0
2017-Nov-11 13:28N 69°31' E 017°54'0 0.0
2017-Nov-11 12:58N 69°31' E 017°54'0 0.1
2017-Nov-11 12:28N 69°31' E 017°54'0 0.0
2017-Nov-11 11:58N 69°31' E 017°54'0 0.0
2017-Nov-11 11:28N 69°31' E 017°54'0 0.0
2017-Nov-11 10:58N 69°31' E 017°54'0 0.0
2017-Nov-11 10:28N 69°31' E 017°54'0 0.0
2017-Nov-11 09:58N 69°31' E 017°54'0 0.0
2017-Nov-11 09:29N 69°31' E 017°54'0 0.0
2017-Nov-11 08:58N 69°31' E 017°54'0 0.0
2017-Nov-11 08:28N 69°31' E 017°54'0 0.0
2017-Nov-11 07:58N 69°31' E 017°54'0 0.0
2017-Nov-11 07:28N 69°31' E 017°54'0 0.0
2017-Nov-11 06:58N 69°31' E 017°54'0 0.0
2017-Nov-11 06:28N 69°31' E 017°54'0 0.0
2017-Nov-11 05:58N 69°31' E 017°54'0 0.0
2017-Nov-11 05:28N 69°31' E 017°54'0 0.0
2017-Nov-11 04:58N 69°31' E 017°54'0 0.0
2017-Nov-11 04:28N 69°31' E 017°54'0 0.0
2017-Nov-11 03:58N 69°31' E 017°54'0 0.0
2017-Nov-11 03:28N 69°31' E 017°54'0 0.0
2017-Nov-11 02:59N 69°31' E 017°54'0 0.0
2017-Nov-11 02:28N 69°31' E 017°54'0 0.0
2017-Nov-11 01:58N 69°31' E 017°54'0 0.0
2017-Nov-11 01:28N 69°31' E 017°54'0 0.0
2017-Nov-11 00:58N 69°31' E 017°54'0 0.0
2017-Nov-11 00:28N 69°31' E 017°54'0 0.0
2017-Nov-10 23:58N 69°31' E 017°54'0 0.0
2017-Nov-10 23:28N 69°31' E 017°54'0 0.0
2017-Nov-10 22:58N 69°31' E 017°54'0 0.0
2017-Nov-10 22:28N 69°31' E 017°54'0 0.0
2017-Nov-10 21:58N 69°31' E 017°54'0 0.0
2017-Nov-10 21:28N 69°31' E 017°54'0 0.0
2017-Nov-10 20:58N 69°31' E 017°54'0 0.0
2017-Nov-10 20:28N 69°31' E 017°54'0 0.0
2017-Nov-10 19:58N 69°31' E 017°54'  
2017-Nov-07 21:59N 69°30' E 017°55'0 0.0
2017-Nov-07 21:29N 69°30' E 017°55'0 0.0
2017-Nov-07 20:47N 69°30' E 017°55'0 0.0
2017-Nov-07 20:29N 69°30' E 017°55'0 0.0
2017-Nov-07 19:59N 69°30' E 017°55'0 0.0
2017-Nov-07 19:29N 69°30' E 017°55'0 0.0
2017-Nov-07 18:59N 69°30' E 017°55'0 0.0
2017-Nov-07 18:25N 69°30' E 017°55'0 0.0
2017-Nov-07 17:58N 69°30' E 017°55'0 0.0
2017-Nov-07 17:28N 69°30' E 017°55'0 0.0
2017-Nov-07 16:58N 69°30' E 017°55'0 0.0
2017-Nov-07 16:28N 69°30' E 017°55'0 0.0
2017-Nov-07 15:58N 69°30' E 017°55'0 0.0
2017-Nov-07 15:25N 69°30' E 017°55'0 0.0
2017-Nov-07 14:58N 69°30' E 017°55'0 0.0
2017-Nov-07 14:28N 69°30' E 017°55'0 0.0
2017-Nov-07 14:00N 69°30' E 017°55'0 0.0
2017-Nov-07 13:27N 69°30' E 017°55'0 0.0
2017-Nov-07 13:00N 69°30' E 017°55'0 0.0
2017-Nov-07 12:30N 69°30' E 017°55'0 0.0
2017-Nov-07 12:00N 69°30' E 017°55'0 0.0
2017-Nov-07 11:30N 69°30' E 017°55'0 0.0
2017-Nov-07 11:00N 69°30' E 017°55'0 0.0
2017-Nov-07 10:30N 69°30' E 017°55'0 0.0
2017-Nov-07 10:00N 69°30' E 017°55'0 0.0
2017-Nov-07 03:15N 69°30' E 017°55'0 0.0
2017-Nov-06 22:45N 69°30' E 017°55'0 0.0
2017-Nov-06 21:54N 69°30' E 017°55'0 0.0
2017-Nov-06 21:12N 69°30' E 017°55'0 0.0
2017-Nov-06 20:36N 69°30' E 017°55'  
Track history (hours):
 
Tides and Currents Weather Stations Pressure Air Temp Water Temp Dewpoint Dewpoint Depression Visibility Wind Speed Wind Dir Waves Ship Positions

Trapani

Last reported at 2017-Nov-16 09:54 UTC. Time now 2017-Nov-18 04:46 UTC.
Position N 69°07' E 017°38'.

Length 10 m.

Type: Fishing. MMSI: 257176540.

Date/timePositionNaut miles runAvg speedWind from/ knotsBaromVisibWave heightAir tempDewpointWater temp
2017-Nov-16 09:54N 69°07' E 017°38'2 3.5
2017-Nov-16 09:26N 69°06' E 017°34'1 2.7
2017-Nov-16 09:00N 69°06' E 017°31'0 0.8
2017-Nov-16 08:30N 69°05' E 017°30'0 0.1
2017-Nov-16 08:00N 69°05' E 017°30'3 5.4
2017-Nov-16 07:30N 69°07' E 017°35'2 3.0
2017-Nov-16 06:59N 69°09' E 017°37'0 0.4
2017-Nov-16 06:30N 69°09' E 017°38'0 0.3
2017-Nov-16 05:59N 69°09' E 017°37'0 0.9
2017-Nov-16 05:29N 69°08' E 017°37'3 6.0
2017-Nov-16 05:00N 69°05' E 017°36'0 0.5
2017-Nov-16 04:30N 69°05' E 017°37'0 0.0
2017-Nov-16 04:00N 69°05' E 017°37'0 0.0
2017-Nov-16 03:30N 69°05' E 017°37'0 0.0
2017-Nov-16 03:00N 69°05' E 017°37'0 0.0
2017-Nov-16 02:30N 69°05' E 017°37'0 0.0
2017-Nov-16 02:00N 69°05' E 017°37'0 0.0
2017-Nov-16 01:30N 69°05' E 017°37'0 0.0
2017-Nov-16 01:00N 69°05' E 017°37'0 0.0
2017-Nov-16 00:30N 69°05' E 017°37'0 0.0
2017-Nov-16 00:00N 69°05' E 017°37'0 0.0
2017-Nov-15 23:30N 69°05' E 017°37'0 0.0
2017-Nov-15 23:00N 69°05' E 017°37'0 0.0
2017-Nov-15 22:30N 69°05' E 017°37'0 0.0
2017-Nov-15 22:00N 69°05' E 017°37'0 0.0
2017-Nov-15 21:30N 69°05' E 017°37'0 0.0
2017-Nov-15 21:00N 69°05' E 017°37'0 0.0
2017-Nov-15 20:30N 69°05' E 017°37'0 0.0
2017-Nov-15 20:00N 69°05' E 017°37'0 0.0
2017-Nov-15 19:30N 69°05' E 017°37'0 0.0
2017-Nov-15 19:00N 69°05' E 017°37'0 0.0
2017-Nov-15 18:30N 69°05' E 017°37'0 0.0
2017-Nov-15 18:00N 69°05' E 017°37'0 0.0
2017-Nov-15 17:30N 69°05' E 017°37'0 0.0
2017-Nov-15 17:00N 69°05' E 017°37'0 0.0
2017-Nov-15 16:30N 69°05' E 017°37'0 0.0
2017-Nov-15 16:00N 69°05' E 017°37'0 0.0
2017-Nov-15 15:30N 69°05' E 017°37'0 0.0
2017-Nov-15 15:00N 69°05' E 017°37'0 0.6
2017-Nov-15 14:29N 69°05' E 017°36'1 2.1
2017-Nov-15 13:58N 69°06' E 017°37'1 1.5
2017-Nov-15 13:30N 69°07' E 017°39'0 0.7
2017-Nov-15 12:58N 69°07' E 017°38'0 0.3
2017-Nov-15 12:28N 69°07' E 017°39'2 4.1
2017-Nov-15 12:00N 69°06' E 017°34'0 0.2
2017-Nov-15 11:30N 69°06' E 017°34'2 3.2
2017-Nov-15 11:00N 69°05' E 017°30'0 0.1
2017-Nov-15 10:23N 69°05' E 017°30'0 0.1
2017-Nov-15 10:00N 69°05' E 017°30'3 5.1
2017-Nov-15 09:30N 69°07' E 017°35'2 3.4
2017-Nov-15 09:00N 69°09' E 017°37'1 2.2
2017-Nov-15 08:30N 69°09' E 017°34'0 0.4
2017-Nov-15 08:00N 69°09' E 017°34'1 2.2
2017-Nov-15 07:29N 69°09' E 017°38'0 0.1
2017-Nov-15 06:59N 69°09' E 017°37'2 4.2
2017-Nov-15 06:30N 69°09' E 017°43'4 7.1
2017-Nov-15 05:59N 69°10' E 017°53'3 7.1
2017-Nov-15 05:30N 69°12' E 018°01'2 4.5
2017-Nov-15 04:59N 69°14' E 017°58'0 0.0
2017-Nov-15 04:29N 69°14' E 017°58'0 0.0
2017-Nov-15 03:59N 69°14' E 017°58'0 0.0
2017-Nov-15 03:29N 69°14' E 017°58'0 0.0
2017-Nov-15 02:59N 69°14' E 017°58'0 0.0
2017-Nov-15 02:29N 69°14' E 017°58'0 0.0
2017-Nov-15 01:59N 69°14' E 017°58'0 0.0
2017-Nov-15 01:29N 69°14' E 017°58'0 0.0
2017-Nov-15 00:59N 69°14' E 017°58'0 0.0
2017-Nov-15 00:29N 69°14' E 017°58'0 0.0
2017-Nov-14 23:59N 69°14' E 017°58'0 0.0
2017-Nov-14 23:29N 69°14' E 017°58'0 0.0
2017-Nov-14 22:59N 69°14' E 017°58'0 0.0
2017-Nov-14 22:29N 69°14' E 017°58'0 0.0
2017-Nov-14 21:59N 69°14' E 017°58'0 0.0
2017-Nov-14 21:29N 69°14' E 017°58'0 0.0
2017-Nov-14 20:59N 69°14' E 017°58'3 5.9
2017-Nov-14 20:29N 69°17' E 017°58'3 6.4
2017-Nov-14 20:00N 69°20' E 018°01'3 6.3
2017-Nov-14 19:30N 69°22' E 018°05'3 6.8
2017-Nov-14 18:59N 69°26' E 018°06'3 6.9
2017-Nov-14 18:30N 69°29' E 018°04'3 6.5
2017-Nov-14 17:59N 69°32' E 017°58'2 3.2
2017-Nov-14 17:28N 69°31' E 017°54'0 0.1
2017-Nov-14 16:59N 69°31' E 017°54'0 0.0
2017-Nov-14 16:26N 69°31' E 017°54'0 0.0
2017-Nov-14 15:56N 69°31' E 017°54'0 0.0
2017-Nov-14 15:29N 69°31' E 017°54'0 0.0
2017-Nov-14 14:59N 69°31' E 017°54'0 0.0
2017-Nov-14 14:29N 69°31' E 017°54'0 0.0
2017-Nov-14 13:59N 69°31' E 017°54'0 0.2
2017-Nov-14 13:30N 69°31' E 017°54'0 0.0
2017-Nov-14 13:00N 69°31' E 017°54'0 0.0
2017-Nov-14 12:30N 69°31' E 017°54'0 0.0
2017-Nov-14 12:00N 69°31' E 017°54'0 0.0
2017-Nov-14 11:30N 69°31' E 017°54'0 0.0
2017-Nov-14 11:00N 69°31' E 017°54'0 0.2
2017-Nov-14 10:30N 69°31' E 017°54'3 5.1
2017-Nov-14 10:00N 69°31' E 018°02'3 6.9
2017-Nov-14 09:30N 69°28' E 018°05'4 7.2
2017-Nov-14 09:00N 69°24' E 018°05'4 7.2
2017-Nov-14 08:30N 69°20' E 018°04'3 7.0
2017-Nov-14 08:00N 69°18' E 017°58'4 7.3
2017-Nov-14 07:30N 69°14' E 017°58'2 3.2
2017-Nov-14 07:00N 69°12' E 018°00'3 6.0
2017-Nov-14 06:30N 69°10' E 017°55'3 7.0
2017-Nov-14 06:00N 69°09' E 017°46'4 6.9
2017-Nov-14 05:29N 69°09' E 017°36'1 1.8
2017-Nov-14 05:00N 69°08' E 017°35'3 5.7
2017-Nov-14 04:30N 69°05' E 017°36'0 0.3
2017-Nov-14 03:58N 69°05' E 017°37'0 0.0
2017-Nov-14 03:28N 69°05' E 017°37'0 0.0
2017-Nov-14 02:58N 69°05' E 017°37'0 0.0
2017-Nov-14 02:28N 69°05' E 017°37'0 0.0
2017-Nov-14 01:58N 69°05' E 017°37'0 0.0
2017-Nov-14 01:28N 69°05' E 017°37'0 0.0
2017-Nov-14 00:58N 69°05' E 017°37'0 0.0
2017-Nov-14 00:28N 69°05' E 017°37'0 0.0
2017-Nov-13 23:58N 69°05' E 017°37'0 0.0
2017-Nov-13 23:28N 69°05' E 017°37'0 0.0
2017-Nov-13 22:58N 69°05' E 017°37'0 0.0
2017-Nov-13 22:28N 69°05' E 017°37'0 0.0
2017-Nov-13 21:58N 69°05' E 017°37'0 0.0
2017-Nov-13 01:58N 69°05' E 017°37'0 0.0
2017-Nov-13 01:28N 69°05' E 017°37'0 0.0
2017-Nov-13 00:58N 69°05' E 017°37'0 0.0
2017-Nov-13 00:28N 69°05' E 017°37'0 0.0
2017-Nov-12 23:58N 69°05' E 017°37'0 0.0
2017-Nov-12 23:28N 69°05' E 017°37'0 0.0
2017-Nov-12 22:58N 69°05' E 017°37'0 0.0
2017-Nov-12 22:28N 69°05' E 017°37'0 0.0
2017-Nov-12 21:58N 69°05' E 017°37'0 0.0
2017-Nov-12 21:28N 69°05' E 017°37'0 0.0
2017-Nov-12 20:58N 69°05' E 017°37'0 0.0
2017-Nov-12 20:28N 69°05' E 017°37'0 0.0
2017-Nov-12 19:58N 69°05' E 017°37'0 0.0
2017-Nov-12 19:28N 69°05' E 017°37'0 0.0
2017-Nov-12 18:58N 69°05' E 017°37'0 0.0
2017-Nov-12 18:28N 69°05' E 017°37'0 0.0
2017-Nov-12 17:58N 69°05' E 017°37'0 0.0
2017-Nov-12 17:28N 69°05' E 017°37'0 0.0
2017-Nov-12 16:58N 69°05' E 017°37'0 0.0
2017-Nov-12 16:28N 69°05' E 017°37'0 0.0
2017-Nov-12 15:58N 69°05' E 017°37'0 0.0
2017-Nov-12 15:28N 69°05' E 017°37'0 1.0
2017-Nov-12 15:00N 69°06' E 017°36'1 1.8
2017-Nov-12 14:27N 69°07' E 017°38'0 0.7
2017-Nov-12 13:59N 69°07' E 017°39'2 3.2
2017-Nov-12 13:29N 69°06' E 017°35'0 0.2
2017-Nov-12 13:00N 69°06' E 017°35'1 2.5
2017-Nov-12 12:30N 69°06' E 017°31'1 1.2
2017-Nov-12 12:00N 69°05' E 017°30'0 0.1
2017-Nov-12 11:30N 69°05' E 017°30'1 2.3
2017-Nov-12 11:00N 69°05' E 017°27'1 0.9
2017-Nov-12 10:28N 69°05' E 017°25'2 3.3
2017-Nov-12 10:01N 69°06' E 017°29'3 5.4
2017-Nov-12 09:30N 69°08' E 017°34'1 1.5
2017-Nov-12 08:58N 69°08' E 017°36'0 0.2
2017-Nov-12 08:29N 69°09' E 017°36'0 1.0
2017-Nov-12 08:00N 69°09' E 017°37'0 0.1
2017-Nov-12 07:30N 69°09' E 017°37'2 3.5
2017-Nov-12 07:00N 69°07' E 017°36'2 3.0
2017-Nov-12 06:29N 69°05' E 017°37'0 0.0
2017-Nov-12 05:59N 69°05' E 017°37'0 0.0
2017-Nov-12 05:29N 69°05' E 017°37'0 0.0
2017-Nov-12 04:59N 69°05' E 017°37'0 0.0
2017-Nov-12 04:29N 69°05' E 017°37'0 0.0
2017-Nov-12 03:59N 69°05' E 017°37'0 0.0
2017-Nov-12 03:29N 69°05' E 017°37'0 0.0
2017-Nov-12 02:59N 69°05' E 017°37'0 0.0
2017-Nov-12 02:29N 69°05' E 017°37'0 0.0
2017-Nov-12 01:59N 69°05' E 017°37'0 0.0
2017-Nov-12 01:29N 69°05' E 017°37'0 0.0
2017-Nov-12 00:56N 69°05' E 017°37'0 0.0
2017-Nov-12 00:29N 69°05' E 017°37'0 0.0
2017-Nov-11 23:59N 69°05' E 017°37'0 0.0
2017-Nov-11 23:29N 69°05' E 017°37'0 0.0
2017-Nov-11 22:59N 69°05' E 017°37'0 0.0
2017-Nov-11 22:29N 69°05' E 017°37'0 0.0
2017-Nov-11 21:59N 69°05' E 017°37'0 0.0
2017-Nov-11 21:29N 69°05' E 017°37'0 0.0
2017-Nov-11 20:59N 69°05' E 017°37'0 0.0
2017-Nov-11 20:29N 69°05' E 017°37'0 0.0
2017-Nov-11 19:59N 69°05' E 017°37'0 0.0
2017-Nov-11 19:29N 69°05' E 017°37'2 3.3
2017-Nov-11 18:59N 69°07' E 017°39'3 7.2
2017-Nov-11 18:30N 69°09' E 017°47'4 7.5
2017-Nov-11 18:00N 69°10' E 017°57'3 5.3
2017-Nov-11 17:30N 69°13' E 017°59'3 6.8
2017-Nov-11 16:59N 69°16' E 017°58'3 6.4
2017-Nov-11 16:30N 69°19' E 018°01'3 6.8
2017-Nov-11 16:00N 69°22' E 018°06'3 6.9
2017-Nov-11 15:30N 69°26' E 018°06'3 6.7
2017-Nov-11 15:00N 69°29' E 018°05'3 6.4
2017-Nov-11 14:29N 69°31' E 017°59'2 3.5
2017-Nov-11 13:59N 69°31' E 017°54'0 0.0
2017-Nov-11 13:28N 69°31' E 017°54'0 0.0
2017-Nov-11 12:58N 69°31' E 017°54'0 0.1
2017-Nov-11 12:28N 69°31' E 017°54'0 0.0
2017-Nov-11 11:58N 69°31' E 017°54'0 0.0
2017-Nov-11 11:28N 69°31' E 017°54'0 0.0
2017-Nov-11 10:58N 69°31' E 017°54'0 0.0
2017-Nov-11 10:28N 69°31' E 017°54'0 0.0
2017-Nov-11 09:58N 69°31' E 017°54'0 0.0
2017-Nov-11 09:29N 69°31' E 017°54'0 0.0
2017-Nov-11 08:58N 69°31' E 017°54'0 0.0
2017-Nov-11 08:28N 69°31' E 017°54'0 0.0
2017-Nov-11 07:58N 69°31' E 017°54'0 0.0
2017-Nov-11 07:28N 69°31' E 017°54'0 0.0
2017-Nov-11 06:58N 69°31' E 017°54'0 0.0
2017-Nov-11 06:28N 69°31' E 017°54'0 0.0
2017-Nov-11 05:58N 69°31' E 017°54'0 0.0
2017-Nov-11 05:28N 69°31' E 017°54'0 0.0
2017-Nov-11 04:58N 69°31' E 017°54'0 0.0
2017-Nov-11 04:28N 69°31' E 017°54'0 0.0
2017-Nov-11 03:58N 69°31' E 017°54'0 0.0
2017-Nov-11 03:28N 69°31' E 017°54'0 0.0
2017-Nov-11 02:59N 69°31' E 017°54'0 0.0
2017-Nov-11 02:28N 69°31' E 017°54'0 0.0
2017-Nov-11 01:58N 69°31' E 017°54'0 0.0
2017-Nov-11 01:28N 69°31' E 017°54'0 0.0
2017-Nov-11 00:58N 69°31' E 017°54'0 0.0
2017-Nov-11 00:28N 69°31' E 017°54'0 0.0
2017-Nov-10 23:58N 69°31' E 017°54'0 0.0
2017-Nov-10 23:28N 69°31' E 017°54'0 0.0
2017-Nov-10 22:58N 69°31' E 017°54'0 0.0
2017-Nov-10 22:28N 69°31' E 017°54'0 0.0
2017-Nov-10 21:58N 69°31' E 017°54'0 0.0
2017-Nov-10 21:28N 69°31' E 017°54'0 0.0
2017-Nov-10 20:58N 69°31' E 017°54'0 0.0
2017-Nov-10 20:28N 69°31' E 017°54'0 0.0
2017-Nov-10 19:58N 69°31' E 017°54'  
2017-Nov-07 21:59N 69°30' E 017°55'0 0.0
2017-Nov-07 21:29N 69°30' E 017°55'0 0.0
2017-Nov-07 20:47N 69°30' E 017°55'0 0.0
2017-Nov-07 20:29N 69°30' E 017°55'0 0.0
2017-Nov-07 19:59N 69°30' E 017°55'0 0.0
2017-Nov-07 19:29N 69°30' E 017°55'0 0.0
2017-Nov-07 18:59N 69°30' E 017°55'0 0.0
2017-Nov-07 18:25N 69°30' E 017°55'0 0.0
2017-Nov-07 17:58N 69°30' E 017°55'0 0.0
2017-Nov-07 17:28N 69°30' E 017°55'0 0.0
2017-Nov-07 16:58N 69°30' E 017°55'0 0.0
2017-Nov-07 16:28N 69°30' E 017°55'0 0.0
2017-Nov-07 15:58N 69°30' E 017°55'0 0.0
2017-Nov-07 15:25N 69°30' E 017°55'0 0.0
2017-Nov-07 14:58N 69°30' E 017°55'0 0.0
2017-Nov-07 14:28N 69°30' E 017°55'0 0.0
2017-Nov-07 14:00N 69°30' E 017°55'0 0.0
2017-Nov-07 13:27N 69°30' E 017°55'0 0.0
2017-Nov-07 13:00N 69°30' E 017°55'0 0.0
2017-Nov-07 12:30N 69°30' E 017°55'0 0.0
2017-Nov-07 12:00N 69°30' E 017°55'0 0.0
2017-Nov-07 11:30N 69°30' E 017°55'0 0.0
2017-Nov-07 11:00N 69°30' E 017°55'0 0.0
2017-Nov-07 10:30N 69°30' E 017°55'0 0.0
2017-Nov-07 10:00N 69°30' E 017°55'0 0.0
2017-Nov-07 03:15N 69°30' E 017°55'0 0.0
2017-Nov-06 22:45N 69°30' E 017°55'0 0.0
2017-Nov-06 21:54N 69°30' E 017°55'0 0.0
2017-Nov-06 21:12N 69°30' E 017°55'0 0.0
2017-Nov-06 20:36N 69°30' E 017°55'  

Dump ship's entire track history